sensor_id;sensor_type;location;lat;lon;timestamp;P1;durP1;ratioP1;P2;durP2;ratioP2
34571;SDS011;20808;48.974;8.452;2022-07-29T00:00:04;5.03;;;4.40;;
34571;SDS011;20808;48.974;8.452;2022-07-29T00:02:31;5.37;;;4.03;;
34571;SDS011;20808;48.974;8.452;2022-07-29T00:04:58;6.17;;;4.03;;
34571;SDS011;20808;48.974;8.452;2022-07-29T00:07:25;6.27;;;4.60;;
34571;SDS011;20808;48.974;8.452;2022-07-29T00:09:52;5.03;;;4.53;;
34571;SDS011;20808;48.974;8.452;2022-07-29T00:12:19;5.80;;;4.33;;
34571;SDS011;20808;48.974;8.452;2022-07-29T00:14:48;5.33;;;4.43;;
34571;SDS011;20808;48.974;8.452;2022-07-29T00:17:15;5.30;;;4.77;;
34571;SDS011;20808;48.974;8.452;2022-07-29T00:19:42;6.10;;;4.20;;
34571;SDS011;20808;48.974;8.452;2022-07-29T00:22:08;4.83;;;4.33;;
34571;SDS011;20808;48.974;8.452;2022-07-29T00:24:35;5.50;;;4.30;;
34571;SDS011;20808;48.974;8.452;2022-07-29T00:27:02;6.90;;;4.67;;
34571;SDS011;20808;48.974;8.452;2022-07-29T00:29:29;6.47;;;4.47;;
34571;SDS011;20808;48.974;8.452;2022-07-29T00:31:57;6.60;;;4.80;;
34571;SDS011;20808;48.974;8.452;2022-07-29T00:34:24;7.33;;;4.60;;
34571;SDS011;20808;48.974;8.452;2022-07-29T00:37:08;6.90;;;4.97;;
34571;SDS011;20808;48.974;8.452;2022-07-29T00:39:35;5.30;;;4.37;;
34571;SDS011;20808;48.974;8.452;2022-07-29T00:42:02;6.73;;;4.90;;
34571;SDS011;20808;48.974;8.452;2022-07-29T00:44:30;7.37;;;4.20;;
34571;SDS011;20808;48.974;8.452;2022-07-29T00:46:58;5.30;;;4.50;;
34571;SDS011;20808;48.974;8.452;2022-07-29T00:49:25;4.73;;;4.33;;
34571;SDS011;20808;48.974;8.452;2022-07-29T00:51:52;6.80;;;4.87;;
34571;SDS011;20808;48.974;8.452;2022-07-29T00:54:19;6.67;;;4.43;;
34571;SDS011;20808;48.974;8.452;2022-07-29T00:56:46;4.87;;;4.30;;
34571;SDS011;20808;48.974;8.452;2022-07-29T00:59:13;6.13;;;4.70;;
34571;SDS011;20808;48.974;8.452;2022-07-29T01:01:39;4.80;;;4.20;;
34571;SDS011;20808;48.974;8.452;2022-07-29T01:04:08;5.30;;;4.50;;
34571;SDS011;20808;48.974;8.452;2022-07-29T01:06:34;4.73;;;4.10;;
34571;SDS011;20808;48.974;8.452;2022-07-29T01:09:02;6.97;;;5.00;;
34571;SDS011;20808;48.974;8.452;2022-07-29T01:11:28;5.53;;;4.43;;
34571;SDS011;20808;48.974;8.452;2022-07-29T01:13:55;6.33;;;4.77;;
34571;SDS011;20808;48.974;8.452;2022-07-29T01:16:24;5.43;;;4.63;;
34571;SDS011;20808;48.974;8.452;2022-07-29T01:18:56;6.50;;;5.27;;
34571;SDS011;20808;48.974;8.452;2022-07-29T01:21:44;7.33;;;5.90;;
34571;SDS011;20808;48.974;8.452;2022-07-29T01:24:26;5.53;;;4.87;;
34571;SDS011;20808;48.974;8.452;2022-07-29T01:27:09;6.83;;;5.27;;
34571;SDS011;20808;48.974;8.452;2022-07-29T01:29:46;6.17;;;5.03;;
34571;SDS011;20808;48.974;8.452;2022-07-29T01:32:18;7.20;;;4.93;;
34571;SDS011;20808;48.974;8.452;2022-07-29T01:34:48;6.17;;;5.00;;
34571;SDS011;20808;48.974;8.452;2022-07-29T01:37:26;5.30;;;4.80;;
34571;SDS011;20808;48.974;8.452;2022-07-29T01:39:56;5.80;;;4.90;;
34571;SDS011;20808;48.974;8.452;2022-07-29T01:42:26;6.13;;;5.20;;
34571;SDS011;20808;48.974;8.452;2022-07-29T01:45:00;6.70;;;4.90;;
34571;SDS011;20808;48.974;8.452;2022-07-29T01:47:33;5.60;;;5.10;;
34571;SDS011;20808;48.974;8.452;2022-07-29T01:50:06;6.63;;;5.13;;
34571;SDS011;20808;48.974;8.452;2022-07-29T01:52:39;10.33;;;5.40;;
34571;SDS011;20808;48.974;8.452;2022-07-29T01:55:11;6.50;;;5.23;;
34571;SDS011;20808;48.974;8.452;2022-07-29T01:57:42;6.13;;;4.40;;
34571;SDS011;20808;48.974;8.452;2022-07-29T02:00:13;8.63;;;5.27;;
34571;SDS011;20808;48.974;8.452;2022-07-29T02:02:42;6.53;;;4.90;;
34571;SDS011;20808;48.974;8.452;2022-07-29T02:05:14;5.30;;;4.80;;
34571;SDS011;20808;48.974;8.452;2022-07-29T02:07:42;5.20;;;4.70;;
34571;SDS011;20808;48.974;8.452;2022-07-29T02:10:10;7.50;;;5.10;;
34571;SDS011;20808;48.974;8.452;2022-07-29T02:12:39;7.13;;;5.33;;
34571;SDS011;20808;48.974;8.452;2022-07-29T02:15:07;7.40;;;5.03;;
34571;SDS011;20808;48.974;8.452;2022-07-29T02:17:38;6.60;;;5.00;;
34571;SDS011;20808;48.974;8.452;2022-07-29T02:20:08;6.13;;;5.30;;
34571;SDS011;20808;48.974;8.452;2022-07-29T02:22:37;6.50;;;5.10;;
34571;SDS011;20808;48.974;8.452;2022-07-29T02:25:05;5.97;;;5.37;;
34571;SDS011;20808;48.974;8.452;2022-07-29T02:27:34;9.60;;;5.63;;
34571;SDS011;20808;48.974;8.452;2022-07-29T02:30:03;7.40;;;5.20;;
34571;SDS011;20808;48.974;8.452;2022-07-29T02:32:32;7.80;;;5.90;;
34571;SDS011;20808;48.974;8.452;2022-07-29T02:35:04;8.77;;;5.87;;
34571;SDS011;20808;48.974;8.452;2022-07-29T02:37:32;8.87;;;5.23;;
34571;SDS011;20808;48.974;8.452;2022-07-29T02:40:00;9.43;;;5.70;;
34571;SDS011;20808;48.974;8.452;2022-07-29T02:42:29;7.37;;;5.73;;
34571;SDS011;20808;48.974;8.452;2022-07-29T02:44:58;9.53;;;5.53;;
34571;SDS011;20808;48.974;8.452;2022-07-29T02:47:27;6.47;;;5.53;;
34571;SDS011;20808;48.974;8.452;2022-07-29T02:50:02;6.53;;;5.00;;
34571;SDS011;20808;48.974;8.452;2022-07-29T02:52:34;6.00;;;5.40;;
34571;SDS011;20808;48.974;8.452;2022-07-29T02:55:07;7.10;;;5.30;;
34571;SDS011;20808;48.974;8.452;2022-07-29T02:57:41;8.10;;;6.23;;
34571;SDS011;20808;48.974;8.452;2022-07-29T03:00:10;6.30;;;5.07;;
34571;SDS011;20808;48.974;8.452;2022-07-29T03:02:39;7.00;;;5.90;;
34571;SDS011;20808;48.974;8.452;2022-07-29T03:05:15;5.67;;;5.07;;
34571;SDS011;20808;48.974;8.452;2022-07-29T03:07:46;7.43;;;5.40;;
34571;SDS011;20808;48.974;8.452;2022-07-29T03:10:17;7.23;;;5.93;;
34571;SDS011;20808;48.974;8.452;2022-07-29T03:12:44;6.83;;;5.43;;
34571;SDS011;20808;48.974;8.452;2022-07-29T03:15:13;6.70;;;5.50;;
34571;SDS011;20808;48.974;8.452;2022-07-29T03:17:40;8.30;;;5.60;;
34571;SDS011;20808;48.974;8.452;2022-07-29T03:20:08;9.53;;;5.60;;
34571;SDS011;20808;48.974;8.452;2022-07-29T03:22:39;6.40;;;5.80;;
34571;SDS011;20808;48.974;8.452;2022-07-29T03:25:09;6.63;;;5.93;;
34571;SDS011;20808;48.974;8.452;2022-07-29T03:27:36;7.60;;;5.10;;
34571;SDS011;20808;48.974;8.452;2022-07-29T03:30:03;8.20;;;5.00;;
34571;SDS011;20808;48.974;8.452;2022-07-29T03:32:30;7.63;;;5.27;;
34571;SDS011;20808;48.974;8.452;2022-07-29T03:34:57;5.90;;;5.30;;
34571;SDS011;20808;48.974;8.452;2022-07-29T03:37:24;7.50;;;5.33;;
34571;SDS011;20808;48.974;8.452;2022-07-29T03:39:53;6.80;;;5.50;;
34571;SDS011;20808;48.974;8.452;2022-07-29T03:42:23;7.00;;;5.40;;
34571;SDS011;20808;48.974;8.452;2022-07-29T03:44:52;6.70;;;5.40;;
34571;SDS011;20808;48.974;8.452;2022-07-29T03:47:22;7.30;;;5.50;;
34571;SDS011;20808;48.974;8.452;2022-07-29T03:49:52;8.70;;;5.90;;
34571;SDS011;20808;48.974;8.452;2022-07-29T03:52:22;8.50;;;5.90;;
34571;SDS011;20808;48.974;8.452;2022-07-29T03:54:49;9.30;;;5.40;;
34571;SDS011;20808;48.974;8.452;2022-07-29T03:57:18;6.27;;;5.67;;
34571;SDS011;20808;48.974;8.452;2022-07-29T03:59:46;7.87;;;6.50;;
34571;SDS011;20808;48.974;8.452;2022-07-29T04:02:14;6.43;;;5.83;;
34571;SDS011;20808;48.974;8.452;2022-07-29T04:04:41;6.30;;;5.53;;
34571;SDS011;20808;48.974;8.452;2022-07-29T04:07:09;7.60;;;6.80;;
34571;SDS011;20808;48.974;8.452;2022-07-29T04:09:38;8.13;;;5.63;;
34571;SDS011;20808;48.974;8.452;2022-07-29T04:12:05;8.50;;;5.93;;
34571;SDS011;20808;48.974;8.452;2022-07-29T04:14:34;6.60;;;6.00;;
34571;SDS011;20808;48.974;8.452;2022-07-29T04:17:01;14.47;;;5.77;;
34571;SDS011;20808;48.974;8.452;2022-07-29T04:19:29;7.40;;;6.70;;
34571;SDS011;20808;48.974;8.452;2022-07-29T04:21:56;7.20;;;6.13;;
34571;SDS011;20808;48.974;8.452;2022-07-29T04:24:23;7.60;;;6.17;;
34571;SDS011;20808;48.974;8.452;2022-07-29T04:26:50;6.97;;;6.17;;
34571;SDS011;20808;48.974;8.452;2022-07-29T04:29:17;9.33;;;6.50;;
34571;SDS011;20808;48.974;8.452;2022-07-29T04:31:46;9.27;;;6.57;;
34571;SDS011;20808;48.974;8.452;2022-07-29T04:34:13;8.67;;;7.20;;
34571;SDS011;20808;48.974;8.452;2022-07-29T04:36:39;7.53;;;6.73;;
34571;SDS011;20808;48.974;8.452;2022-07-29T04:39:06;9.40;;;6.73;;
34571;SDS011;20808;48.974;8.452;2022-07-29T04:41:33;7.40;;;6.53;;
34571;SDS011;20808;48.974;8.452;2022-07-29T04:44:00;7.20;;;6.53;;
34571;SDS011;20808;48.974;8.452;2022-07-29T04:46:30;7.37;;;6.53;;
34571;SDS011;20808;48.974;8.452;2022-07-29T04:48:58;8.27;;;6.33;;
34571;SDS011;20808;48.974;8.452;2022-07-29T04:51:25;9.07;;;7.00;;
34571;SDS011;20808;48.974;8.452;2022-07-29T04:53:51;10.33;;;6.60;;
34571;SDS011;20808;48.974;8.452;2022-07-29T04:56:18;7.90;;;7.10;;
34571;SDS011;20808;48.974;8.452;2022-07-29T04:58:45;12.50;;;6.60;;
34571;SDS011;20808;48.974;8.452;2022-07-29T05:01:12;7.90;;;6.67;;
34571;SDS011;20808;48.974;8.452;2022-07-29T05:03:40;8.33;;;6.80;;
34571;SDS011;20808;48.974;8.452;2022-07-29T05:06:08;11.40;;;6.70;;
34571;SDS011;20808;48.974;8.452;2022-07-29T05:08:35;9.23;;;6.30;;
34571;SDS011;20808;48.974;8.452;2022-07-29T05:11:02;13.57;;;7.30;;
34571;SDS011;20808;48.974;8.452;2022-07-29T05:13:29;10.10;;;7.23;;
34571;SDS011;20808;48.974;8.452;2022-07-29T05:15:56;9.30;;;7.30;;
34571;SDS011;20808;48.974;8.452;2022-07-29T05:18:23;10.23;;;7.80;;
34571;SDS011;20808;48.974;8.452;2022-07-29T05:20:50;9.13;;;7.30;;
34571;SDS011;20808;48.974;8.452;2022-07-29T05:23:18;8.10;;;6.37;;
34571;SDS011;20808;48.974;8.452;2022-07-29T05:25:45;11.20;;;8.03;;
34571;SDS011;20808;48.974;8.452;2022-07-29T05:28:12;10.13;;;7.07;;
34571;SDS011;20808;48.974;8.452;2022-07-29T05:30:39;7.80;;;7.00;;
34571;SDS011;20808;48.974;8.452;2022-07-29T05:33:05;12.07;;;7.20;;
34571;SDS011;20808;48.974;8.452;2022-07-29T05:35:32;13.10;;;6.50;;
34571;SDS011;20808;48.974;8.452;2022-07-29T05:38:02;9.87;;;7.40;;
34571;SDS011;20808;48.974;8.452;2022-07-29T05:40:30;9.67;;;7.37;;
34571;SDS011;20808;48.974;8.452;2022-07-29T05:42:57;8.17;;;6.90;;
34571;SDS011;20808;48.974;8.452;2022-07-29T05:45:24;8.17;;;7.00;;
34571;SDS011;20808;48.974;8.452;2022-07-29T05:47:51;7.57;;;6.47;;
34571;SDS011;20808;48.974;8.452;2022-07-29T05:50:18;8.63;;;7.10;;
34571;SDS011;20808;48.974;8.452;2022-07-29T05:52:44;7.40;;;6.07;;
34571;SDS011;20808;48.974;8.452;2022-07-29T05:55:11;8.23;;;6.87;;
34571;SDS011;20808;48.974;8.452;2022-07-29T05:57:40;9.57;;;6.07;;
34571;SDS011;20808;48.974;8.452;2022-07-29T06:00:09;10.30;;;7.00;;
34571;SDS011;20808;48.974;8.452;2022-07-29T06:02:36;8.40;;;6.30;;
34571;SDS011;20808;48.974;8.452;2022-07-29T06:05:03;8.00;;;6.50;;
34571;SDS011;20808;48.974;8.452;2022-07-29T06:07:30;8.57;;;6.67;;
34571;SDS011;20808;48.974;8.452;2022-07-29T06:09:57;13.00;;;7.07;;
34571;SDS011;20808;48.974;8.452;2022-07-29T06:12:24;8.10;;;6.43;;
34571;SDS011;20808;48.974;8.452;2022-07-29T06:14:52;8.37;;;6.20;;
34571;SDS011;20808;48.974;8.452;2022-07-29T06:17:19;10.97;;;6.80;;
34571;SDS011;20808;48.974;8.452;2022-07-29T06:19:46;11.80;;;6.90;;
34571;SDS011;20808;48.974;8.452;2022-07-29T06:22:14;8.47;;;6.50;;
34571;SDS011;20808;48.974;8.452;2022-07-29T06:24:41;10.47;;;5.90;;
34571;SDS011;20808;48.974;8.452;2022-07-29T06:27:09;7.50;;;5.90;;
34571;SDS011;20808;48.974;8.452;2022-07-29T06:29:36;5.33;;;4.50;;
34571;SDS011;20808;48.974;8.452;2022-07-29T06:32:04;7.23;;;5.20;;
34571;SDS011;20808;48.974;8.452;2022-07-29T06:34:31;10.17;;;4.70;;
34571;SDS011;20808;48.974;8.452;2022-07-29T06:36:58;9.33;;;4.30;;
34571;SDS011;20808;48.974;8.452;2022-07-29T06:39:25;6.27;;;4.33;;
34571;SDS011;20808;48.974;8.452;2022-07-29T06:41:52;5.93;;;4.93;;
34571;SDS011;20808;48.974;8.452;2022-07-29T06:44:19;7.63;;;4.60;;
34571;SDS011;20808;48.974;8.452;2022-07-29T06:46:46;5.33;;;4.60;;
34571;SDS011;20808;48.974;8.452;2022-07-29T06:49:16;6.73;;;4.67;;
34571;SDS011;20808;48.974;8.452;2022-07-29T06:51:43;7.10;;;4.70;;
34571;SDS011;20808;48.974;8.452;2022-07-29T06:54:10;11.03;;;4.37;;
34571;SDS011;20808;48.974;8.452;2022-07-29T06:56:36;10.03;;;4.80;;
34571;SDS011;20808;48.974;8.452;2022-07-29T06:59:06;7.10;;;4.20;;
34571;SDS011;20808;48.974;8.452;2022-07-29T07:01:34;4.73;;;4.13;;
34571;SDS011;20808;48.974;8.452;2022-07-29T07:04:02;7.40;;;4.53;;
34571;SDS011;20808;48.974;8.452;2022-07-29T07:06:30;7.87;;;4.40;;
34571;SDS011;20808;48.974;8.452;2022-07-29T07:08:57;6.57;;;4.10;;
34571;SDS011;20808;48.974;8.452;2022-07-29T07:11:24;5.70;;;4.40;;
34571;SDS011;20808;48.974;8.452;2022-07-29T07:13:50;6.27;;;4.90;;
34571;SDS011;20808;48.974;8.452;2022-07-29T07:16:17;9.30;;;4.70;;
34571;SDS011;20808;48.974;8.452;2022-07-29T07:18:44;8.37;;;4.40;;
34571;SDS011;20808;48.974;8.452;2022-07-29T07:21:11;6.23;;;4.57;;
34571;SDS011;20808;48.974;8.452;2022-07-29T07:23:39;5.23;;;4.23;;
34571;SDS011;20808;48.974;8.452;2022-07-29T07:26:06;7.30;;;4.70;;
34571;SDS011;20808;48.974;8.452;2022-07-29T07:28:33;6.83;;;4.60;;
34571;SDS011;20808;48.974;8.452;2022-07-29T07:31:00;8.60;;;4.40;;
34571;SDS011;20808;48.974;8.452;2022-07-29T07:33:26;5.00;;;4.40;;
34571;SDS011;20808;48.974;8.452;2022-07-29T07:35:53;10.57;;;4.80;;
34571;SDS011;20808;48.974;8.452;2022-07-29T07:38:20;6.60;;;4.40;;
34571;SDS011;20808;48.974;8.452;2022-07-29T07:40:48;8.27;;;4.80;;
34571;SDS011;20808;48.974;8.452;2022-07-29T07:43:15;11.00;;;4.80;;
34571;SDS011;20808;48.974;8.452;2022-07-29T07:45:42;6.07;;;4.60;;
34571;SDS011;20808;48.974;8.452;2022-07-29T07:48:09;7.27;;;4.40;;
34571;SDS011;20808;48.974;8.452;2022-07-29T07:50:36;11.40;;;4.70;;
34571;SDS011;20808;48.974;8.452;2022-07-29T07:53:03;5.60;;;3.87;;
34571;SDS011;20808;48.974;8.452;2022-07-29T07:55:30;9.10;;;5.17;;
34571;SDS011;20808;48.974;8.452;2022-07-29T07:57:58;7.33;;;4.50;;
34571;SDS011;20808;48.974;8.452;2022-07-29T08:00:25;5.93;;;4.20;;
34571;SDS011;20808;48.974;8.452;2022-07-29T08:02:52;4.50;;;3.83;;
34571;SDS011;20808;48.974;8.452;2022-07-29T08:05:19;12.90;;;5.03;;
34571;SDS011;20808;48.974;8.452;2022-07-29T08:07:46;5.70;;;4.03;;
34571;SDS011;20808;48.974;8.452;2022-07-29T08:10:13;12.10;;;4.03;;
34571;SDS011;20808;48.974;8.452;2022-07-29T08:13:02;6.80;;;4.20;;
34571;SDS011;20808;48.974;8.452;2022-07-29T08:15:29;6.30;;;4.50;;
34571;SDS011;20808;48.974;8.452;2022-07-29T08:17:56;10.53;;;4.23;;
34571;SDS011;20808;48.974;8.452;2022-07-29T08:20:23;5.13;;;3.90;;
34571;SDS011;20808;48.974;8.452;2022-07-29T08:22:50;8.83;;;4.27;;
34571;SDS011;20808;48.974;8.452;2022-07-29T08:25:17;5.90;;;4.17;;
34571;SDS011;20808;48.974;8.452;2022-07-29T08:27:45;6.03;;;3.60;;
34571;SDS011;20808;48.974;8.452;2022-07-29T08:30:14;4.60;;;3.73;;
34571;SDS011;20808;48.974;8.452;2022-07-29T08:32:40;7.23;;;3.43;;
34571;SDS011;20808;48.974;8.452;2022-07-29T08:35:08;6.20;;;3.50;;
34571;SDS011;20808;48.974;8.452;2022-07-29T08:37:35;5.27;;;3.63;;
34571;SDS011;20808;48.974;8.452;2022-07-29T08:40:02;4.90;;;3.13;;
34571;SDS011;20808;48.974;8.452;2022-07-29T08:42:29;5.93;;;3.20;;
34571;SDS011;20808;48.974;8.452;2022-07-29T08:44:56;6.60;;;3.13;;
34571;SDS011;20808;48.974;8.452;2022-07-29T08:47:25;7.47;;;3.00;;
34571;SDS011;20808;48.974;8.452;2022-07-29T08:49:53;4.40;;;3.10;;
34571;SDS011;20808;48.974;8.452;2022-07-29T08:52:20;5.30;;;3.73;;
34571;SDS011;20808;48.974;8.452;2022-07-29T08:54:50;6.50;;;3.27;;
34571;SDS011;20808;48.974;8.452;2022-07-29T08:57:19;8.13;;;3.43;;
34571;SDS011;20808;48.974;8.452;2022-07-29T08:59:47;5.97;;;3.63;;
34571;SDS011;20808;48.974;8.452;2022-07-29T09:02:18;8.97;;;3.80;;
34571;SDS011;20808;48.974;8.452;2022-07-29T09:04:48;9.50;;;3.20;;
34571;SDS011;20808;48.974;8.452;2022-07-29T09:07:15;8.23;;;3.20;;
34571;SDS011;20808;48.974;8.452;2022-07-29T09:09:43;5.23;;;3.20;;
34571;SDS011;20808;48.974;8.452;2022-07-29T09:12:10;8.80;;;3.37;;
34571;SDS011;20808;48.974;8.452;2022-07-29T09:14:37;10.20;;;3.10;;
34571;SDS011;20808;48.974;8.452;2022-07-29T09:17:04;5.70;;;3.63;;
34571;SDS011;20808;48.974;8.452;2022-07-29T09:19:31;5.57;;;2.73;;
34571;SDS011;20808;48.974;8.452;2022-07-29T09:22:02;4.63;;;3.03;;
34571;SDS011;20808;48.974;8.452;2022-07-29T09:24:37;6.17;;;3.00;;
34571;SDS011;20808;48.974;8.452;2022-07-29T09:29:57;5.50;;;4.20;;
34571;SDS011;20808;48.974;8.452;2022-07-29T09:32:25;6.23;;;3.30;;
34571;SDS011;20808;48.974;8.452;2022-07-29T09:37:42;7.00;;;3.20;;
34571;SDS011;20808;48.974;8.452;2022-07-29T09:40:11;3.83;;;3.30;;
34571;SDS011;20808;48.974;8.452;2022-07-29T09:42:39;6.83;;;3.43;;
34571;SDS011;20808;48.974;8.452;2022-07-29T09:45:06;6.63;;;2.93;;
34571;SDS011;20808;48.974;8.452;2022-07-29T09:47:43;9.13;;;2.93;;
34571;SDS011;20808;48.974;8.452;2022-07-29T09:50:12;5.70;;;3.20;;
34571;SDS011;20808;48.974;8.452;2022-07-29T09:52:47;6.03;;;3.40;;
34571;SDS011;20808;48.974;8.452;2022-07-29T09:55:16;11.40;;;3.47;;
34571;SDS011;20808;48.974;8.452;2022-07-29T09:57:43;7.50;;;2.90;;
34571;SDS011;20808;48.974;8.452;2022-07-29T10:00:11;4.80;;;3.20;;
34571;SDS011;20808;48.974;8.452;2022-07-29T10:02:41;7.23;;;3.40;;
34571;SDS011;20808;48.974;8.452;2022-07-29T10:05:16;6.77;;;3.33;;
34571;SDS011;20808;48.974;8.452;2022-07-29T10:07:45;4.97;;;3.50;;
34571;SDS011;20808;48.974;8.452;2022-07-29T10:10:21;4.97;;;3.47;;
34571;SDS011;20808;48.974;8.452;2022-07-29T10:12:50;10.60;;;3.40;;
34571;SDS011;20808;48.974;8.452;2022-07-29T10:15:18;8.53;;;3.73;;
34571;SDS011;20808;48.974;8.452;2022-07-29T10:17:46;6.57;;;3.38;;
34571;SDS011;20808;48.974;8.452;2022-07-29T10:20:14;6.90;;;3.90;;
34571;SDS011;20808;48.974;8.452;2022-07-29T10:22:41;10.82;;;3.60;;
34571;SDS011;20808;48.974;8.452;2022-07-29T10:25:10;7.00;;;3.40;;
34571;SDS011;20808;48.974;8.452;2022-07-29T10:27:37;6.60;;;3.70;;
34571;SDS011;20808;48.974;8.452;2022-07-29T10:30:05;9.53;;;4.10;;
34571;SDS011;20808;48.974;8.452;2022-07-29T10:32:39;4.53;;;3.50;;
34571;SDS011;20808;48.974;8.452;2022-07-29T10:35:39;4.70;;;3.50;;
34571;SDS011;20808;48.974;8.452;2022-07-29T10:41:27;4.45;;;2.88;;
34571;SDS011;20808;48.974;8.452;2022-07-29T10:44:18;7.65;;;3.40;;
34571;SDS011;20808;48.974;8.452;2022-07-29T10:46:46;6.57;;;3.10;;
34571;SDS011;20808;48.974;8.452;2022-07-29T10:49:13;8.15;;;3.50;;
34571;SDS011;20808;48.974;8.452;2022-07-29T10:51:51;9.02;;;3.58;;
34571;SDS011;20808;48.974;8.452;2022-07-29T10:57:25;4.65;;;2.88;;
34571;SDS011;20808;48.974;8.452;2022-07-29T11:03:00;6.38;;;3.05;;
34571;SDS011;20808;48.974;8.452;2022-07-29T11:05:26;3.45;;;3.08;;
34571;SDS011;20808;48.974;8.452;2022-07-29T11:10:51;3.55;;;2.95;;
34571;SDS011;20808;48.974;8.452;2022-07-29T11:13:47;6.65;;;2.95;;
34571;SDS011;20808;48.974;8.452;2022-07-29T11:16:16;5.60;;;3.10;;
34571;SDS011;20808;48.974;8.452;2022-07-29T11:21:45;2.67;;;2.33;;
34571;SDS011;20808;48.974;8.452;2022-07-29T11:24:15;3.03;;;2.30;;
34571;SDS011;20808;48.974;8.452;2022-07-29T11:26:44;6.38;;;2.30;;
34571;SDS011;20808;48.974;8.452;2022-07-29T11:29:16;4.60;;;2.28;;
34571;SDS011;20808;48.974;8.452;2022-07-29T11:31:46;6.47;;;2.60;;
34571;SDS011;20808;48.974;8.452;2022-07-29T11:34:17;5.07;;;2.63;;
34571;SDS011;20808;48.974;8.452;2022-07-29T11:39:45;2.58;;;2.20;;
34571;SDS011;20808;48.974;8.452;2022-07-29T11:45:21;2.55;;;2.30;;
34571;SDS011;20808;48.974;8.452;2022-07-29T11:47:53;5.28;;;2.58;;
34571;SDS011;20808;48.974;8.452;2022-07-29T11:50:28;2.47;;;2.28;;
34571;SDS011;20808;48.974;8.452;2022-07-29T11:52:57;5.13;;;2.10;;
34571;SDS011;20808;48.974;8.452;2022-07-29T11:55:27;6.68;;;2.47;;
34571;SDS011;20808;48.974;8.452;2022-07-29T11:58:00;6.18;;;2.50;;
34571;SDS011;20808;48.974;8.452;2022-07-29T12:00:31;3.33;;;1.98;;
34571;SDS011;20808;48.974;8.452;2022-07-29T12:03:01;3.72;;;2.40;;
34571;SDS011;20808;48.974;8.452;2022-07-29T12:05:33;4.75;;;2.22;;
34571;SDS011;20808;48.974;8.452;2022-07-29T12:08:12;5.63;;;2.30;;
34571;SDS011;20808;48.974;8.452;2022-07-29T12:10:41;3.05;;;2.28;;
34571;SDS011;20808;48.974;8.452;2022-07-29T12:13:09;4.75;;;2.63;;
34571;SDS011;20808;48.974;8.452;2022-07-29T12:15:38;4.68;;;2.60;;
34571;SDS011;20808;48.974;8.452;2022-07-29T12:18:11;4.45;;;2.22;;
34571;SDS011;20808;48.974;8.452;2022-07-29T12:20:42;4.75;;;2.17;;
34571;SDS011;20808;48.974;8.452;2022-07-29T12:23:10;4.60;;;2.38;;
34571;SDS011;20808;48.974;8.452;2022-07-29T12:25:41;3.80;;;2.25;;
34571;SDS011;20808;48.974;8.452;2022-07-29T12:28:10;4.43;;;2.90;;
34571;SDS011;20808;48.974;8.452;2022-07-29T12:30:41;3.78;;;2.22;;
34571;SDS011;20808;48.974;8.452;2022-07-29T12:33:13;4.85;;;2.40;;
34571;SDS011;20808;48.974;8.452;2022-07-29T12:35:47;7.50;;;2.33;;
34571;SDS011;20808;48.974;8.452;2022-07-29T12:38:17;2.38;;;2.17;;
34571;SDS011;20808;48.974;8.452;2022-07-29T12:40:46;3.88;;;2.40;;
34571;SDS011;20808;48.974;8.452;2022-07-29T12:43:16;8.88;;;2.50;;
34571;SDS011;20808;48.974;8.452;2022-07-29T12:45:47;3.10;;;2.20;;
34571;SDS011;20808;48.974;8.452;2022-07-29T12:48:16;6.65;;;2.50;;
34571;SDS011;20808;48.974;8.452;2022-07-29T12:50:51;3.85;;;2.40;;
34571;SDS011;20808;48.974;8.452;2022-07-29T12:53:20;3.42;;;2.63;;
34571;SDS011;20808;48.974;8.452;2022-07-29T12:55:47;6.55;;;2.38;;
34571;SDS011;20808;48.974;8.452;2022-07-29T12:58:26;4.28;;;2.30;;
34571;SDS011;20808;48.974;8.452;2022-07-29T13:01:02;3.70;;;2.30;;
34571;SDS011;20808;48.974;8.452;2022-07-29T13:03:44;4.35;;;2.53;;
34571;SDS011;20808;48.974;8.452;2022-07-29T13:06:28;3.35;;;2.30;;
34571;SDS011;20808;48.974;8.452;2022-07-29T13:09:13;3.30;;;2.33;;
34571;SDS011;20808;48.974;8.452;2022-07-29T13:11:42;2.35;;;2.15;;
34571;SDS011;20808;48.974;8.452;2022-07-29T13:14:11;5.75;;;2.30;;
34571;SDS011;20808;48.974;8.452;2022-07-29T13:19:34;2.83;;;2.00;;
34571;SDS011;20808;48.974;8.452;2022-07-29T13:22:03;3.38;;;2.28;;
34571;SDS011;20808;48.974;8.452;2022-07-29T13:24:33;3.72;;;2.00;;
34571;SDS011;20808;48.974;8.452;2022-07-29T13:27:00;3.67;;;2.45;;
34571;SDS011;20808;48.974;8.452;2022-07-29T13:29:27;3.40;;;2.15;;
34571;SDS011;20808;48.974;8.452;2022-07-29T13:31:54;3.83;;;1.95;;
34571;SDS011;20808;48.974;8.452;2022-07-29T13:34:22;2.90;;;2.00;;
34571;SDS011;20808;48.974;8.452;2022-07-29T13:36:49;3.33;;;2.30;;
34571;SDS011;20808;48.974;8.452;2022-07-29T13:39:16;2.93;;;2.30;;
34571;SDS011;20808;48.974;8.452;2022-07-29T13:41:42;2.40;;;2.10;;
34571;SDS011;20808;48.974;8.452;2022-07-29T13:44:09;7.27;;;2.10;;
34571;SDS011;20808;48.974;8.452;2022-07-29T13:46:36;3.30;;;2.13;;
34571;SDS011;20808;48.974;8.452;2022-07-29T13:49:03;3.57;;;2.20;;
34571;SDS011;20808;48.974;8.452;2022-07-29T13:51:32;6.03;;;2.10;;
34571;SDS011;20808;48.974;8.452;2022-07-29T13:53:58;12.63;;;2.53;;
34571;SDS011;20808;48.974;8.452;2022-07-29T13:56:25;2.80;;;2.07;;
34571;SDS011;20808;48.974;8.452;2022-07-29T13:58:52;5.73;;;2.23;;
34571;SDS011;20808;48.974;8.452;2022-07-29T14:01:19;2.73;;;2.20;;
34571;SDS011;20808;48.974;8.452;2022-07-29T14:03:46;2.83;;;1.90;;
34571;SDS011;20808;48.974;8.452;2022-07-29T14:06:13;6.10;;;2.57;;
34571;SDS011;20808;48.974;8.452;2022-07-29T14:08:41;4.00;;;1.90;;
34571;SDS011;20808;48.974;8.452;2022-07-29T14:11:08;5.90;;;2.17;;
34571;SDS011;20808;48.974;8.452;2022-07-29T14:13:34;4.20;;;2.03;;
34571;SDS011;20808;48.974;8.452;2022-07-29T14:16:01;3.78;;;2.20;;
34571;SDS011;20808;48.974;8.452;2022-07-29T14:18:28;4.07;;;2.20;;
34571;SDS011;20808;48.974;8.452;2022-07-29T14:20:55;10.20;;;2.50;;
34571;SDS011;20808;48.974;8.452;2022-07-29T14:23:23;5.93;;;2.33;;
34571;SDS011;20808;48.974;8.452;2022-07-29T14:25:51;4.63;;;2.13;;
34571;SDS011;20808;48.974;8.452;2022-07-29T14:28:18;6.53;;;2.83;;
34571;SDS011;20808;48.974;8.452;2022-07-29T14:30:45;3.03;;;2.23;;
34571;SDS011;20808;48.974;8.452;2022-07-29T14:33:12;5.83;;;2.77;;
34571;SDS011;20808;48.974;8.452;2022-07-29T14:35:39;6.10;;;2.60;;
34571;SDS011;20808;48.974;8.452;2022-07-29T14:38:06;10.60;;;2.60;;
34571;SDS011;20808;48.974;8.452;2022-07-29T14:40:32;4.80;;;2.43;;
34571;SDS011;20808;48.974;8.452;2022-07-29T14:43:01;2.60;;;2.00;;
34571;SDS011;20808;48.974;8.452;2022-07-29T14:45:28;3.50;;;1.97;;
34571;SDS011;20808;48.974;8.452;2022-07-29T14:47:55;6.13;;;2.23;;
34571;SDS011;20808;48.974;8.452;2022-07-29T14:50:22;2.50;;;1.93;;
34571;SDS011;20808;48.974;8.452;2022-07-29T14:52:49;5.97;;;2.40;;
34571;SDS011;20808;48.974;8.452;2022-07-29T14:55:16;5.30;;;2.28;;
34571;SDS011;20808;48.974;8.452;2022-07-29T14:57:42;6.30;;;2.00;;
34571;SDS011;20808;48.974;8.452;2022-07-29T15:00:11;2.90;;;2.00;;
34571;SDS011;20808;48.974;8.452;2022-07-29T15:02:38;5.57;;;2.20;;
34571;SDS011;20808;48.974;8.452;2022-07-29T15:05:05;3.83;;;1.90;;
34571;SDS011;20808;48.974;8.452;2022-07-29T15:07:32;4.37;;;2.20;;
34571;SDS011;20808;48.974;8.452;2022-07-29T15:09:59;5.37;;;2.00;;
34571;SDS011;20808;48.974;8.452;2022-07-29T15:12:26;4.47;;;2.40;;
34571;SDS011;20808;48.974;8.452;2022-07-29T15:14:53;3.70;;;2.27;;
34571;SDS011;20808;48.974;8.452;2022-07-29T15:17:21;2.80;;;2.17;;
34571;SDS011;20808;48.974;8.452;2022-07-29T15:19:48;3.07;;;1.90;;
34571;SDS011;20808;48.974;8.452;2022-07-29T15:22:15;9.10;;;2.20;;
34571;SDS011;20808;48.974;8.452;2022-07-29T15:24:42;2.73;;;2.33;;